Wading River, NY (11792)

8:51 PM EDT on April 26, 2017 (GMT -0400)
Long Island North Shore | | Change Station
Active Advisory: Dense Fog Advisory

Elev 117 ft 40.95 °N, 72.84 °W | Updated 46 seconds ago

Overcast
Overcast
55.1 °F
Feels Like 55.1 °F
N
0.0
Wind Variable Wind from North
Gusts 0.0 mph

Today
High -- | Low -- °F
--% Chance of Precip.
Yesterday
High -- | Low -- °F
Precip. -- in
Pressure 29.81 in
Visibility 10.0 miles
Clouds Overcast 900 ft
Dew Point 54 °F
Humidity 98%
Rainfall 0.20 in
Snow Depth Not available.
5:55 AM 7:43 PM
New Moon, 0% visible
SPECI KHWV 270017Z AUTO 00000KT 10SM OVC009 16/14 A2981 RMK AO2 CIG 008V013 T01560144 TSNO
Pressure 29.81 in
Visibility 10.0 miles
Clouds Overcast 900 ft
Dew Point 54 °F
Humidity 98%
Rainfall 0.20 in
Snow Depth Not available.
5:55 AM 7:43 PM
New Moon, 0% visible
SPECI KHWV 270017Z AUTO 00000KT 10SM OVC009 16/14 A2981 RMK AO2 CIG 008V013 T01560144 TSNO

Get Your Daily Forecast Email!

Thanks for signing up!

Be on the lookout for a verification email in your inbox.

You'll start receiving severe weather alerts in your inbox..

×

10-Day Weather Forecast

Almanac

Astronomy

Apr. 26, 2017 Rise Set
Actual Time
Civil Twilight
Nautical Twilight
Astronomical Twilight
Moon
Length of Visible Light
Length of Day
Tomorrow will be .
, % of the Moon is Illuminated

Today's Extremes

State Highs State Lows

Community

WunderPhotos

WunderBlog® & News

Nearby

Air Quality

  Air Quality AQ Index Pollutant
Not available.

Snow Depth

Station Depth Elevation

Earthquake Activity

City Distance Mag. Time & Date
Minimum magnitude displayed is 2.5.

Coastal Water Temperatures

Place Temperature

Stations

Nearby Weather Stations

Station Location Temp. Windchill Dew Point Humidity Wind Precip. Elev Updated Type
                   

Watches & Warnings

Dense Fog Advisory
Issued: 3:44 PM EDT Apr. 26, 2017 – National Weather Service

... Dense fog advisory in effect from 8 PM this evening to 8 am
EDT Thursday...

The National Weather Service in Upton has issued a dense fog
advisory, which is in effect from 8 PM this evening to 8 am EDT
Thursday.

* Visibilities... a quarter mile or less.

* Timing... tonight into early Thursday.

* Impacts... limited visibilities will make travel difficult.

Precautionary/preparedness actions...

A dense fog advisory means visibilities will frequently be
reduced to one quarter mile or less. If driving... slow down... use
your low beam headlights... and leave plenty of distance ahead of
you in case a sudden stop is needed.